KJDN

Jordan Airport

Jordan, Montana, USA
METAR KJDN 240148Z AUTO 00000KT 16/14 A2981 RMK AO1 SLP093 P0075 T01560144
Observed Flight Rules
May-24 @ 01:48 UTC (27 minutes ago)
Temperatures Readings Precipitation
Current 16°C / 61°F
Dewpoint 14°C / 57°F
Humidity 88%
Altimeter 29.81" Hg
Pressure 1009.3 hPa
Elevation 801
Current Rain 0.75
METAR KJDN 240148Z AUTO 00000KT 16/14 A2981 RMK AO1 SLP093 P0075 T01560144
Observed Flight Rules
May-24 @ 01:48 UTC
(27 minutes ago)
Temperature Dewpoint
16°C / 61°F 14°C / 57°F
Humidity Altimeter Pressure
88% 29.81" Hg 1009.3 hPa
Current Rain
0.75